Terminal Aerodrome Forecast
Issued by NWS

Home | Current Version | Previous Version | Text Only | Print | Product List | Glossary On
Versions: 1 2 3 4 5 6 7 8 9 10 11 12 13 14 15 16 17 18 19 20
000
FTUS43 KDVN 242120 AAH
TAFCID
TAF AMD
KCID 242120Z 2421/2518 34014G22KT 3SM -SN BR OVC012
      TEMPO 2421/2423 1/2SM -SN FG
     FM250400 32015G25KT 5SM -SN BR OVC015
     FM250700 32017G28KT 6SM BR OVC020=

USA.gov is the U.S. government's official web portal to all federal, state and local government web resources and services.